createdAt,value
2023-01-22T00:27:42.686Z,149.06
2023-01-22T00:28:42.653Z,150.07
2023-01-22T00:29:42.587Z,148.26
2023-01-22T00:30:42.505Z,147.31
2023-01-22T00:31:42.588Z,147.12
2023-01-22T00:32:42.428Z,150.32
2023-01-22T00:33:42.389Z,149.23
2023-01-22T00:34:42.323Z,149.30
2023-01-22T00:35:42.272Z,151.84
2023-01-22T00:36:42.225Z,148.05
2023-01-22T00:37:42.180Z,148.90
2023-01-22T00:38:42.137Z,147.57
2023-01-22T00:39:42.088Z,147.69
2023-01-22T00:40:42.050Z,147.03
2023-01-22T00:41:42.006Z,149.16
2023-01-22T00:42:41.943Z,149.71
2023-01-22T00:43:41.904Z,145.30
2023-01-22T00:44:41.838Z,147.33
2023-01-22T00:45:41.835Z,149.39
2023-01-22T00:46:41.819Z,146.53
2023-01-22T00:47:41.720Z,146.35
2023-01-22T00:48:41.674Z,145.55
2023-01-22T00:49:41.614Z,149.35
2023-01-22T00:50:41.571Z,149.43
2023-01-22T00:51:41.499Z,146.98
2023-01-22T00:52:41.463Z,148.08
2023-01-22T00:53:41.431Z,147.94
2023-01-22T00:54:41.377Z,144.67
2023-01-22T00:55:41.302Z,148.24
2023-01-22T00:56:41.271Z,147.78
2023-01-22T00:57:41.206Z,147.29
2023-01-22T00:58:41.162Z,147.87
2023-01-22T00:59:41.104Z,147.62
2023-01-22T01:00:41.089Z,144.95
2023-01-22T01:01:41.050Z,145.95
2023-01-22T01:02:40.962Z,147.05
2023-01-22T01:03:40.917Z,143.97
2023-01-22T01:04:40.876Z,145.66
2023-01-22T01:05:40.806Z,145.81
2023-01-22T01:06:40.745Z,148.62
2023-01-22T01:07:40.703Z,144.89
2023-01-22T01:08:40.660Z,143.98
2023-01-22T01:09:40.585Z,146.10
2023-01-22T01:10:40.562Z,146.09
2023-01-22T01:11:40.500Z,146.42
2023-01-22T01:12:40.465Z,142.93
2023-01-22T01:13:40.407Z,146.24
2023-01-22T01:14:40.380Z,147.35
2023-01-22T01:16:41.320Z,147.00
2023-01-22T01:17:40.193Z,147.48
2023-01-22T01:18:40.151Z,147.33
2023-01-22T01:19:40.087Z,144.85
2023-01-22T01:20:40.030Z,145.91
2023-01-22T01:21:39.962Z,145.11
2023-01-22T01:22:39.923Z,146.90
2023-01-22T01:23:39.901Z,146.51
2023-01-22T01:24:39.803Z,146.99
2023-01-22T01:25:39.772Z,146.86
2023-01-22T01:26:39.698Z,148.49
2023-01-22T01:27:39.657Z,146.98
2023-01-22T01:28:39.601Z,146.43
2023-01-22T01:29:39.550Z,146.80
2023-01-22T01:30:39.516Z,147.00
2023-01-22T01:31:39.490Z,147.43
2023-01-22T01:32:39.469Z,146.94
2023-01-22T01:33:39.308Z,147.93
2023-01-22T01:34:39.278Z,147.43
2023-01-22T01:35:39.217Z,145.39
2023-01-22T01:36:50.053Z,147.40
2023-01-22T01:37:40.114Z,147.64
2023-01-22T01:38:39.044Z,148.11
2023-01-22T01:39:39.007Z,148.64
2023-01-22T01:40:38.952Z,146.47
2023-01-22T03:52:32.485Z,139.92
2023-01-22T03:53:32.430Z,139.14
2023-01-22T03:54:32.393Z,141.89
2023-01-22T03:55:32.348Z,139.09
2023-01-22T03:56:32.385Z,141.56
2023-01-22T03:57:32.271Z,137.46
2023-01-22T03:58:32.188Z,141.40
2023-01-22T03:59:32.154Z,140.66
2023-01-22T04:00:32.418Z,138.99
2023-01-22T04:01:32.125Z,140.45
2023-01-22T04:02:32.031Z,138.39
2023-01-22T04:03:31.970Z,139.56
2023-01-22T04:04:31.934Z,139.16
2023-01-22T04:05:31.895Z,142.26
2023-01-22T04:06:31.823Z,138.75
2023-01-22T04:07:31.766Z,139.02
2023-01-22T04:08:31.737Z,137.84
2023-01-22T04:09:31.680Z,139.25
2023-01-22T04:10:31.646Z,139.45
2023-01-22T04:11:31.612Z,139.40
2023-01-22T04:12:31.616Z,138.64
2023-01-22T04:13:31.491Z,139.35
2023-01-22T04:14:31.470Z,140.05
2023-01-22T04:15:31.425Z,138.13
2023-01-22T04:16:31.397Z,137.29
2023-01-22T04:17:31.313Z,140.02
2023-01-22T04:18:31.272Z,139.51
2023-01-22T04:19:31.222Z,138.03
2023-01-22T04:20:31.177Z,137.60
2023-01-22T04:21:31.139Z,138.25
2023-01-22T04:22:31.089Z,139.03
2023-01-22T04:23:31.054Z,137.04
2023-01-22T04:24:31.004Z,139.39
2023-01-22T04:25:30.957Z,139.59
2023-01-22T04:26:30.903Z,137.20
2023-01-22T04:27:30.858Z,138.40
2023-01-22T04:28:30.881Z,138.57
2023-01-22T04:29:30.747Z,137.89
2023-01-22T04:30:30.785Z,137.35
2023-01-22T04:31:30.805Z,138.33
2023-01-22T04:32:30.589Z,137.55
2023-01-22T04:33:30.549Z,137.15
2023-01-22T04:34:30.486Z,135.97
2023-01-22T04:35:30.450Z,136.78
2023-01-22T04:36:30.412Z,137.21
2023-01-22T04:37:30.359Z,139.34
2023-01-22T04:38:30.316Z,139.60
2023-01-22T04:39:30.283Z,138.03
2023-01-22T04:40:30.233Z,137.14
2023-01-22T04:41:30.207Z,137.24
2023-01-22T04:42:30.162Z,137.45
2023-01-22T04:43:30.087Z,138.33
2023-01-22T04:44:30.127Z,136.08
2023-01-22T04:45:30.002Z,137.81
2023-01-22T04:46:30.067Z,136.27
2023-01-22T04:47:29.934Z,136.05
2023-01-22T04:48:29.873Z,138.37
2023-01-22T04:49:29.819Z,137.81
2023-01-22T04:50:29.783Z,136.38
2023-01-22T04:51:29.700Z,136.51
2023-01-22T04:52:29.672Z,138.37
2023-01-22T04:53:29.604Z,138.65
2023-01-22T04:54:29.562Z,136.71
2023-01-22T04:55:29.520Z,139.69
2023-01-22T04:56:29.469Z,136.06
2023-01-22T04:57:29.444Z,135.89
2023-01-22T04:58:29.346Z,136.51
2023-01-22T04:59:29.316Z,134.82
2023-01-22T05:00:29.365Z,135.21
2023-01-22T05:01:29.263Z,135.66
2023-01-22T05:02:29.181Z,135.27
2023-01-22T05:03:29.107Z,135.12
2023-01-22T05:04:29.043Z,135.82
2023-01-22T05:05:29.025Z,137.36
2023-01-22T05:06:28.941Z,136.11
2023-01-22T05:23:28.066Z,135.23
2023-01-22T05:24:27.951Z,135.52
2023-01-22T05:25:27.882Z,135.65
2023-01-22T05:26:27.843Z,135.75
2023-01-22T05:27:27.791Z,135.64
2023-01-22T05:28:27.730Z,135.23
2023-01-22T05:29:27.665Z,134.46
2023-01-22T05:30:27.670Z,136.24
2023-01-22T05:31:27.597Z,133.93
2023-01-22T05:33:27.461Z,132.85
2023-01-22T05:34:27.406Z,135.27
2023-01-22T05:35:27.350Z,136.49
2023-01-22T05:36:27.316Z,136.75
2023-01-22T05:37:27.274Z,133.85
2023-01-22T05:38:27.192Z,134.90
2023-01-22T05:39:27.139Z,133.23
2023-01-22T05:40:27.085Z,134.33
2023-01-22T05:41:27.037Z,133.89
2023-01-22T05:42:26.983Z,134.38
2023-01-22T05:43:26.942Z,134.28
2023-01-22T05:44:26.859Z,134.69
2023-01-22T05:45:26.823Z,132.94
2023-01-22T05:46:26.840Z,134.56
2023-01-22T05:47:26.739Z,136.20
2023-01-22T05:48:26.745Z,135.56
2023-01-22T05:49:26.597Z,133.69
2023-01-22T05:50:26.533Z,136.03
2023-01-22T05:51:26.599Z,135.06
2023-01-22T05:52:26.439Z,133.63
2023-01-22T05:53:26.401Z,134.19
2023-01-22T05:54:26.334Z,134.53
2023-01-22T05:55:26.267Z,132.78
2023-01-22T05:56:26.269Z,134.75
2023-01-22T05:57:26.174Z,132.58
2023-01-22T05:58:26.134Z,134.30
2023-01-22T05:59:26.070Z,135.79
2023-01-22T06:00:26.007Z,133.13
2023-01-22T06:01:25.952Z,135.17
2023-01-22T06:02:25.893Z,135.48
2023-01-22T06:03:25.877Z,135.05
2023-01-22T06:04:25.857Z,135.60
2023-01-22T06:05:25.775Z,135.24
2023-01-22T06:06:25.649Z,136.29
2023-01-22T06:07:25.618Z,134.99
2023-01-22T06:08:25.574Z,133.64
2023-01-22T06:09:25.479Z,134.50
2023-01-22T06:10:25.436Z,135.40
2023-01-22T06:11:25.389Z,135.03
2023-01-22T06:12:25.340Z,132.45
2023-01-22T06:13:25.309Z,133.89
2023-01-22T06:14:25.221Z,130.49
2023-01-22T06:15:25.188Z,136.58
2023-01-22T06:16:25.169Z,133.38
2023-01-22T06:17:25.076Z,132.79
2023-01-22T06:18:25.060Z,133.29
2023-01-22T06:19:24.969Z,133.51
2023-01-22T06:20:25.001Z,134.07
2023-01-22T06:21:24.910Z,134.69
2023-01-22T06:22:24.807Z,133.45
2023-01-22T06:23:24.782Z,135.36
2023-01-22T06:24:24.724Z,133.05
2023-01-22T06:25:24.670Z,136.02
2023-01-22T06:26:24.637Z,131.27
2023-01-22T06:27:24.588Z,136.19
2023-01-22T06:28:24.518Z,133.72
2023-01-22T06:29:24.476Z,133.42
2023-01-22T06:30:24.390Z,134.58
2023-01-22T06:31:24.433Z,132.06
2023-01-22T06:32:24.280Z,131.43
2023-01-22T06:33:24.253Z,133.18
2023-01-22T06:34:24.161Z,132.49
2023-01-22T06:35:24.111Z,131.50
2023-01-22T06:36:24.134Z,136.47
2023-01-22T06:37:24.009Z,132.07
2023-01-22T06:38:23.961Z,134.30
2023-01-22T06:39:23.909Z,131.26
2023-01-22T06:40:23.852Z,133.84
2023-01-22T06:41:23.801Z,133.82
2023-01-22T06:42:23.721Z,130.92
2023-01-22T06:43:23.695Z,132.90
2023-01-22T06:44:23.658Z,132.63
2023-01-22T06:45:23.597Z,132.37
2023-01-22T06:46:23.584Z,132.10
2023-01-22T06:47:23.483Z,135.72
2023-01-22T06:48:23.527Z,131.58
2023-01-22T06:49:23.415Z,131.64
2023-01-22T06:50:23.336Z,133.51
2023-01-22T06:51:23.352Z,129.86
2023-01-22T06:52:23.306Z,130.43
2023-01-22T06:53:23.201Z,134.41
2023-01-22T06:54:23.150Z,133.80
2023-01-22T06:55:23.089Z,132.90
2023-01-22T06:56:23.055Z,132.68
2023-01-22T06:57:22.987Z,134.38
2023-01-22T06:58:22.989Z,132.40
2023-01-22T06:59:22.905Z,131.40
2023-01-22T07:00:22.822Z,131.68
2023-01-22T07:01:22.806Z,129.18
2023-01-22T07:02:22.719Z,133.19
2023-01-22T07:03:22.748Z,132.26
2023-01-22T07:04:22.634Z,129.63
2023-01-22T07:05:23.233Z,133.04
2023-01-22T07:06:22.517Z,132.97
2023-01-22T07:07:22.459Z,130.60
2023-01-22T07:08:22.482Z,131.07
2023-01-22T07:09:22.353Z,130.54
2023-01-22T07:10:22.283Z,132.53
2023-01-22T07:11:22.238Z,129.61
2023-01-22T07:12:22.186Z,129.91
2023-01-22T07:13:22.134Z,130.54
2023-01-22T07:14:36.154Z,130.94
2023-01-22T07:15:23.049Z,129.92
2023-01-22T07:16:22.039Z,130.34
2023-01-22T07:17:21.939Z,131.40
2023-01-22T07:18:21.903Z,131.26
2023-01-22T07:19:21.846Z,131.59
2023-01-22T07:20:21.793Z,133.37
2023-01-22T07:21:21.745Z,132.85
2023-01-22T07:22:21.668Z,131.79
2023-01-22T07:23:21.640Z,130.49
2023-01-22T07:24:21.655Z,131.04
2023-01-22T07:25:21.525Z,131.55
2023-01-22T07:26:21.459Z,132.46
2023-01-22T07:27:21.427Z,133.98
2023-01-22T07:28:21.375Z,131.74
2023-01-22T07:29:21.311Z,132.02
2023-01-22T07:30:21.242Z,134.45
2023-01-22T07:31:21.239Z,132.71
2023-01-22T07:32:21.142Z,130.61
2023-01-22T07:33:21.125Z,133.47
2023-01-22T07:34:21.051Z,131.57
2023-01-22T07:35:21.002Z,133.70
2023-01-22T07:36:20.928Z,130.39
2023-01-22T07:37:20.886Z,130.30
2023-01-22T07:38:20.851Z,130.65
2023-01-22T07:39:20.779Z,129.73
2023-01-22T07:40:20.815Z,130.91
2023-01-22T07:41:26.047Z,129.70
2023-01-22T07:42:21.661Z,130.01
2023-01-22T07:43:20.598Z,130.50
2023-01-22T07:44:20.602Z,130.96
2023-01-22T07:45:20.548Z,131.22
2023-01-22T07:46:20.562Z,133.11
2023-01-22T07:47:20.399Z,130.77
2023-01-22T07:48:20.377Z,133.25
2023-01-22T07:49:20.419Z,132.48
2023-01-22T07:50:20.415Z,133.32
2023-01-22T07:51:20.236Z,131.45
2023-01-22T07:52:20.167Z,131.20
2023-01-22T07:53:20.126Z,131.43
2023-01-22T07:54:20.092Z,128.37
2023-01-22T07:55:20.022Z,132.64
2023-01-22T07:56:20.031Z,129.42
2023-01-22T07:57:19.901Z,130.90
2023-01-22T07:58:19.854Z,130.69
2023-01-22T07:59:19.869Z,130.37
2023-01-22T08:00:20.023Z,130.63
2023-01-22T08:01:19.718Z,130.52
2023-01-22T08:02:19.704Z,131.68
2023-01-22T08:03:19.616Z,131.21
2023-01-22T08:04:19.571Z,129.55
2023-01-22T08:05:19.556Z,130.19
2023-01-22T08:06:19.440Z,130.47
2023-01-22T08:07:19.386Z,130.24
2023-01-22T08:08:19.384Z,130.96
2023-01-22T08:09:19.309Z,129.51
2023-01-22T08:10:19.577Z,129.30
2023-01-22T08:11:19.223Z,132.16
2023-01-22T08:12:19.211Z,130.38
2023-01-22T08:13:19.085Z,128.51
2023-01-22T08:14:19.054Z,130.42
2023-01-22T08:15:19.003Z,129.89
2023-01-22T08:16:18.967Z,130.09
2023-01-22T08:17:18.882Z,129.37
2023-01-22T08:18:20.399Z,130.31
2023-01-22T08:19:18.952Z,132.83
2023-01-22T08:20:19.363Z,127.32
2023-01-22T08:21:18.846Z,128.71
2023-01-22T08:22:18.816Z,128.63
2023-01-22T08:23:19.501Z,130.44
2023-01-22T08:24:19.450Z,127.92
2023-01-22T08:25:18.649Z,130.19
2023-01-22T08:26:18.587Z,127.96
2023-01-22T08:27:18.546Z,129.13
2023-01-22T08:28:18.593Z,129.30
2023-01-22T08:29:18.445Z,129.44
2023-01-22T08:30:18.621Z,129.70
2023-01-22T08:31:27.359Z,130.44
2023-01-22T08:32:19.386Z,129.42
2023-01-22T08:33:18.223Z,129.72
2023-01-22T08:34:18.169Z,129.43
2023-01-22T08:35:18.133Z,129.73
2023-01-22T08:36:18.102Z,129.93
2023-01-22T08:37:17.997Z,130.45
2023-01-22T08:38:17.944Z,131.93
2023-01-22T08:39:17.892Z,129.25
2023-01-22T08:40:18.138Z,130.98
2023-01-22T08:41:17.779Z,130.00
2023-01-22T08:42:17.726Z,130.97
2023-01-22T08:43:17.668Z,131.76
2023-01-22T08:44:17.700Z,132.15
2023-01-22T08:45:17.580Z,129.77
2023-01-22T08:46:17.531Z,129.74
2023-01-22T08:47:17.441Z,131.07
2023-01-22T08:48:17.407Z,131.31
2023-01-22T08:49:17.368Z,128.64
2023-01-22T08:50:17.661Z,131.51
2023-01-22T08:51:17.253Z,131.69
2023-01-22T08:52:17.171Z,130.74
2023-01-22T08:53:17.132Z,132.09
2023-01-22T08:54:17.112Z,131.76
2023-01-22T08:55:17.019Z,131.60
2023-01-22T08:56:16.987Z,134.03
2023-01-22T08:57:16.909Z,133.00
2023-01-22T08:58:16.889Z,133.60
2023-01-22T08:59:16.795Z,133.87
2023-01-22T09:00:17.118Z,135.07
2023-01-22T09:01:16.774Z,135.57
2023-01-22T09:02:16.691Z,135.97
2023-01-22T09:03:16.582Z,132.15
2023-01-22T09:04:16.519Z,131.96
2023-01-22T09:05:16.484Z,138.81
2023-01-22T09:06:16.418Z,135.59
2023-01-22T09:07:16.339Z,136.49
2023-01-22T09:08:16.299Z,136.28
2023-01-22T09:09:16.222Z,138.13
2023-01-22T09:10:16.437Z,138.35
2023-01-22T09:11:16.112Z,138.41
2023-01-22T09:12:16.069Z,138.22
2023-01-22T09:13:15.979Z,137.93
2023-01-22T09:14:15.922Z,137.93
2023-01-22T09:15:15.872Z,141.38
2023-01-22T09:16:15.936Z,137.86
2023-01-22T09:17:15.746Z,138.40
2023-01-22T09:18:15.910Z,138.90
2023-01-22T09:19:15.594Z,139.14
2023-01-22T09:20:15.586Z,140.33
2023-01-22T09:21:15.479Z,139.80
2023-01-22T09:22:15.416Z,139.77
2023-01-22T09:23:15.695Z,137.43
2023-01-22T09:24:15.281Z,141.54
2023-01-22T09:25:15.195Z,140.43
2023-01-22T09:26:15.163Z,139.01
2023-01-22T09:27:15.100Z,141.14
2023-01-22T09:28:15.017Z,138.53
2023-01-22T09:29:14.983Z,140.17
2023-01-22T09:30:14.910Z,140.03
2023-01-22T09:31:14.899Z,141.17
2023-01-22T09:32:14.836Z,141.01
2023-01-22T09:33:14.683Z,144.20
2023-01-22T09:34:14.618Z,141.49
2023-01-22T09:35:16.558Z,140.26
2023-01-22T09:36:14.495Z,140.56
2023-01-22T09:37:14.425Z,138.02
2023-01-22T09:38:14.341Z,140.98
2023-01-22T09:39:14.279Z,141.13
2023-01-22T09:40:14.218Z,140.72
2023-01-22T09:41:14.150Z,139.48
2023-01-22T09:42:14.108Z,139.90
2023-01-22T09:43:14.036Z,142.43
2023-01-22T09:44:13.978Z,139.49
2023-01-22T09:45:13.896Z,141.03
2023-01-22T09:46:13.891Z,140.56
2023-01-22T09:47:13.771Z,143.70
2023-01-22T09:48:13.826Z,141.21
2023-01-22T09:49:13.734Z,143.63
2023-01-22T09:50:13.760Z,141.43
2023-01-22T09:51:13.734Z,143.88
2023-01-22T09:52:13.733Z,143.98
2023-01-22T09:53:13.708Z,143.41
2023-01-22T09:54:13.705Z,143.93
2023-01-22T09:55:13.725Z,145.29
2023-01-22T09:56:13.697Z,142.57
2023-01-22T09:57:30.005Z,143.10
2023-01-22T09:58:14.635Z,143.24
2023-01-22T09:59:13.541Z,143.43
2023-01-22T10:00:13.482Z,142.10
2023-01-22T10:01:13.468Z,146.69
2023-01-22T10:02:13.427Z,143.33
2023-01-22T10:03:13.270Z,142.45
2023-01-22T10:04:13.253Z,142.91
2023-01-22T10:05:13.098Z,143.06
2023-01-22T10:06:13.037Z,144.57
2023-01-22T10:07:12.997Z,141.99
2023-01-22T10:08:12.900Z,142.04
2023-01-22T10:09:12.833Z,142.74
2023-01-22T10:10:12.797Z,142.05
2023-01-22T10:11:12.701Z,141.26
2023-01-22T10:12:13.517Z,140.93
2023-01-22T10:13:12.561Z,142.93
2023-01-22T10:14:12.583Z,140.98
2023-01-22T10:15:12.429Z,143.18
2023-01-22T10:16:12.367Z,142.77
2023-01-22T10:17:12.292Z,143.73
2023-01-22T10:18:12.196Z,140.79
2023-01-22T10:19:12.150Z,138.22
2023-01-22T10:20:12.134Z,140.50
2023-01-22T10:21:12.033Z,143.47
2023-01-22T10:22:11.912Z,142.96
2023-01-22T10:23:11.863Z,141.36
2023-01-22T10:24:11.765Z,142.12
2023-01-22T10:25:11.685Z,144.56
2023-01-22T10:26:13.251Z,144.81
2023-01-22T10:27:11.687Z,143.63
2023-01-22T10:28:11.647Z,143.69
2023-01-22T10:29:11.564Z,143.88
2023-01-22T10:30:11.479Z,146.18
2023-01-22T10:31:11.463Z,144.37
2023-01-22T10:32:11.414Z,144.77
2023-01-22T10:33:11.341Z,145.59
2023-01-22T10:34:11.320Z,147.37
2023-01-22T10:35:11.318Z,147.09
2023-01-22T10:36:11.381Z,143.46
2023-01-22T10:37:11.341Z,148.71
2023-01-22T10:38:11.347Z,146.13
2023-01-22T10:39:11.308Z,144.25
2023-01-22T10:40:11.259Z,144.65
2023-01-22T10:41:11.246Z,146.40
2023-01-22T10:42:11.239Z,143.89
2023-01-22T10:43:11.228Z,145.23
2023-01-22T10:44:11.179Z,143.46
2023-01-22T10:45:11.180Z,143.03
2023-01-22T10:46:11.203Z,142.26
2023-01-22T10:47:11.127Z,141.47
2023-01-22T10:48:11.187Z,143.04
2023-01-22T10:49:11.111Z,139.09
2023-01-22T10:50:11.101Z,142.16
2023-01-22T10:51:11.119Z,137.38
2023-01-22T10:52:11.139Z,141.05
2023-01-22T10:53:11.066Z,142.93
2023-01-22T10:54:11.054Z,141.59
2023-01-22T10:55:11.024Z,139.64
2023-01-22T10:56:12.619Z,140.46
2023-01-22T10:57:10.976Z,142.22
2023-01-22T10:58:10.944Z,139.84
2023-01-22T10:59:10.763Z,142.83
2023-01-22T11:00:10.719Z,136.81
2023-01-22T11:01:10.695Z,143.17
2023-01-22T11:02:10.640Z,139.27
2023-01-22T11:03:10.646Z,141.11
2023-01-22T11:04:10.602Z,142.23
2023-01-22T11:05:10.571Z,137.96
2023-01-22T11:06:10.573Z,140.13
2023-01-22T11:07:10.579Z,139.88
2023-01-22T11:08:10.630Z,138.21
2023-01-22T11:09:10.489Z,137.27
2023-01-22T11:10:10.460Z,139.00
2023-01-22T11:11:10.456Z,138.92
2023-01-22T11:12:10.509Z,137.08
2023-01-22T11:13:10.448Z,138.65
2023-01-22T11:14:10.406Z,141.25
2023-01-22T11:15:10.407Z,139.64
2023-01-22T11:16:10.432Z,138.71
2023-01-22T11:17:10.407Z,137.75
2023-01-22T11:18:10.386Z,138.27
2023-01-22T11:19:10.330Z,135.91
2023-01-22T11:20:10.305Z,137.93
2023-01-22T11:21:10.327Z,141.33
2023-01-22T11:22:10.261Z,137.86
2023-01-22T11:23:10.255Z,139.38
2023-01-22T11:24:10.298Z,141.75
2023-01-22T11:25:10.195Z,137.57
2023-01-22T11:26:10.190Z,139.07
2023-01-22T11:27:10.186Z,137.38
2023-01-22T11:28:10.173Z,141.26
2023-01-22T11:29:10.129Z,136.60
2023-01-22T11:30:10.139Z,136.80
2023-01-22T11:31:10.197Z,138.42
2023-01-22T11:32:10.066Z,139.11
2023-01-22T11:33:10.075Z,137.53
2023-01-22T11:34:10.068Z,135.47
2023-01-22T11:35:10.014Z,133.62
2023-01-22T11:36:10.016Z,139.46
2023-01-22T11:37:10.003Z,136.52
2023-01-22T11:38:10.020Z,139.24
2023-01-22T11:39:09.984Z,138.21
2023-01-22T11:40:10.021Z,135.74
2023-01-22T11:41:09.941Z,136.35
2023-01-22T11:42:09.913Z,138.87
2023-01-22T11:43:09.920Z,135.93
2023-01-22T11:44:09.880Z,135.19
2023-01-22T11:45:09.894Z,137.30
2023-01-22T11:46:09.872Z,133.87
2023-01-22T11:47:09.826Z,134.89
2023-01-22T11:48:09.820Z,136.33
2023-01-22T11:49:09.792Z,138.43
2023-01-22T11:50:09.785Z,139.24
2023-01-22T11:51:09.827Z,137.18
2023-01-22T11:52:09.757Z,141.09
2023-01-22T11:53:09.728Z,139.01
2023-01-22T11:54:11.996Z,139.24
2023-01-22T11:55:09.635Z,139.43
2023-01-22T11:56:09.672Z,139.59
2023-01-22T11:57:09.513Z,140.04
2023-01-22T11:58:09.407Z,139.80
2023-01-22T11:59:09.347Z,139.80
2023-01-22T12:00:09.256Z,141.91
2023-01-22T12:01:09.167Z,142.17
2023-01-22T12:02:09.117Z,142.03
2023-01-22T12:03:09.021Z,141.71
2023-01-22T12:04:09.073Z,142.78
2023-01-22T12:42:05.638Z,155.60
2023-01-22T12:45:05.407Z,153.43
2023-01-22T12:46:05.336Z,152.69
2023-01-22T12:47:05.280Z,154.86
2023-01-22T12:48:05.164Z,153.73
2023-01-22T12:49:05.078Z,153.23
2023-01-22T12:50:05.100Z,157.18
2023-01-22T12:51:04.942Z,155.98
2023-01-22T12:52:04.796Z,150.29
2023-01-22T12:53:04.726Z,151.90
2023-01-22T12:54:04.702Z,152.81
2023-01-22T12:55:04.560Z,150.73
2023-01-22T12:56:04.454Z,152.18
2023-01-22T12:57:04.358Z,152.43
2023-01-22T12:58:04.273Z,156.67
2023-01-22T12:59:04.653Z,152.31
2023-01-22T13:00:04.177Z,150.81
2023-01-22T13:01:04.099Z,151.39
2023-01-22T13:02:03.946Z,154.50
2023-01-22T13:03:03.829Z,153.13
2023-01-22T13:04:03.737Z,151.98
2023-01-22T13:05:03.654Z,151.84
2023-01-22T13:06:03.555Z,150.29
2023-01-22T13:07:03.455Z,149.70
2023-01-22T13:08:03.370Z,150.71
2023-01-22T13:09:03.294Z,149.64
2023-01-22T13:10:03.236Z,149.31
2023-01-22T13:11:03.086Z,147.75
2023-01-22T13:12:02.987Z,146.32
2023-01-22T13:13:02.930Z,144.67
2023-01-22T13:14:14.335Z,145.27
2023-01-22T13:15:03.781Z,145.48
2023-01-22T13:16:02.752Z,145.48
2023-01-22T13:17:02.548Z,144.02
2023-01-22T13:18:07.132Z,141.73
2023-01-22T13:19:03.423Z,145.35
2023-01-22T13:20:02.322Z,144.50
2023-01-22T13:21:02.280Z,142.86
2023-01-22T13:22:02.164Z,140.38
2023-01-22T13:23:02.071Z,140.53
2023-01-22T13:24:01.979Z,140.31
2023-01-22T13:25:01.911Z,140.36
2023-01-22T13:26:01.839Z,139.00
2023-01-22T13:27:01.745Z,141.99
2023-01-22T13:28:01.656Z,139.97
2023-01-22T13:29:01.565Z,143.35
2023-01-22T13:30:01.500Z,141.58
2023-01-22T13:31:01.501Z,142.83
2023-01-22T13:32:01.472Z,142.90
2023-01-22T13:33:01.255Z,142.18
2023-01-22T13:34:01.154Z,144.38
2023-01-22T13:35:01.080Z,144.94
2023-01-22T13:36:01.034Z,144.43
2023-01-22T13:37:00.954Z,142.97
2023-01-22T13:38:00.832Z,144.40
2023-01-22T13:39:00.774Z,142.83
2023-01-22T13:40:00.649Z,145.07
2023-01-22T13:41:00.561Z,144.44
2023-01-22T13:42:00.488Z,144.60
2023-01-22T13:43:00.391Z,144.41
2023-01-22T13:44:00.293Z,143.83
2023-01-22T13:45:00.249Z,141.56
2023-01-22T13:46:00.237Z,141.69
2023-01-22T13:47:00.093Z,141.64
2023-01-22T13:48:00.054Z,142.38
2023-01-22T13:48:59.916Z,141.75
2023-01-22T13:49:59.820Z,140.16
2023-01-22T13:50:59.835Z,141.03
2023-01-22T13:51:59.709Z,139.91
2023-01-22T13:52:59.564Z,139.26
2023-01-22T13:53:59.507Z,137.01
2023-01-22T13:55:00.110Z,138.40
2023-01-22T13:55:59.381Z,136.83
2023-01-22T13:56:59.293Z,136.63
2023-01-22T13:57:59.207Z,134.88
2023-01-22T13:58:59.121Z,135.19
2023-01-22T13:59:59.045Z,134.29
2023-01-22T14:00:59.122Z,134.19
2023-01-22T14:01:58.930Z,132.97
2023-01-22T14:02:58.793Z,132.55
2023-01-22T14:03:58.777Z,130.79
2023-01-22T14:04:58.665Z,130.76
2023-01-22T14:05:58.554Z,130.07
2023-01-22T14:06:58.464Z,130.97
2023-01-22T14:07:58.378Z,130.62
2023-01-22T14:08:58.325Z,130.85
2023-01-22T14:09:58.246Z,129.02
2023-01-22T14:10:58.185Z,128.86
2023-01-22T14:11:58.085Z,129.60
2023-01-22T14:12:58.044Z,127.77
2023-01-22T14:13:57.944Z,128.55
2023-01-22T14:14:57.872Z,127.45
2023-01-22T14:15:57.837Z,127.58
2023-01-22T14:16:57.722Z,127.13
2023-01-22T14:17:57.669Z,126.48
2023-01-22T14:18:57.590Z,125.51
2023-01-22T14:19:57.588Z,126.76
2023-01-22T14:20:57.444Z,125.73
2023-01-22T14:21:57.369Z,124.74
2023-01-22T14:22:57.276Z,125.22
2023-01-22T14:23:57.186Z,124.13
2023-01-22T14:24:57.115Z,123.66
2023-01-22T14:25:57.051Z,123.59
2023-01-22T14:26:56.972Z,122.22
2023-01-22T14:27:56.892Z,123.44
2023-01-22T14:28:56.837Z,123.55
2023-01-22T14:29:56.730Z,123.15
2023-01-22T14:30:56.674Z,121.66
2023-01-22T14:31:56.642Z,123.58
2023-01-22T14:32:56.489Z,123.56
2023-01-22T14:33:56.443Z,121.90
2023-01-22T14:34:56.358Z,120.44
2023-01-22T14:35:56.406Z,120.35
2023-01-22T14:36:56.186Z,120.92
2023-01-22T14:37:56.104Z,120.67
2023-01-22T14:38:56.040Z,119.69
2023-01-22T14:39:55.949Z,118.95
2023-01-22T14:40:55.914Z,121.34
2023-01-22T14:41:55.804Z,118.29
2023-01-22T14:42:55.735Z,118.12
2023-01-22T14:43:55.728Z,120.21
2023-01-22T14:44:55.630Z,118.94
2023-01-22T14:45:55.565Z,118.68
2023-01-22T14:46:55.510Z,118.88
2023-01-22T14:47:55.398Z,116.62
2023-01-22T14:48:55.329Z,120.93
2023-01-22T14:49:55.225Z,116.47
2023-01-22T14:50:55.236Z,117.08
2023-01-22T14:51:55.202Z,121.39
2023-01-22T14:52:55.020Z,115.84
2023-01-22T14:53:54.995Z,116.90
2023-01-22T14:54:54.869Z,115.43
2023-01-22T14:55:54.843Z,116.57
2023-01-22T14:56:54.731Z,115.64
2023-01-22T14:57:54.716Z,117.00
2023-01-22T14:58:54.574Z,119.47
2023-01-22T14:59:54.505Z,115.41
2023-01-22T15:00:54.504Z,115.96
2023-01-22T15:01:54.386Z,115.76
2023-01-22T15:02:54.277Z,113.28
2023-01-22T15:03:54.321Z,113.45
2023-01-22T15:04:54.132Z,113.79
2023-01-22T15:05:54.060Z,114.12
2023-01-22T15:06:53.996Z,114.59
2023-01-22T15:07:54.019Z,115.67
2023-01-22T15:08:53.846Z,115.22
2023-01-22T15:09:53.800Z,115.73
2023-01-22T15:10:53.771Z,114.00
2023-01-22T15:11:53.629Z,116.44
2023-01-22T15:12:53.549Z,114.41
2023-01-22T15:13:53.471Z,114.70
2023-01-22T15:14:53.388Z,114.95
2023-01-22T15:15:53.330Z,114.95
2023-01-22T15:16:53.309Z,115.49
2023-01-22T15:17:53.166Z,114.63
2023-01-22T15:18:53.110Z,113.89
2023-01-22T15:19:53.022Z,113.93
2023-01-22T15:20:52.965Z,111.55
2023-01-22T15:21:52.889Z,113.29
2023-01-22T15:22:52.807Z,111.31
2023-01-22T15:23:52.830Z,112.26
2023-01-22T15:24:52.685Z,111.95
2023-01-22T15:25:52.579Z,114.35
2023-01-22T15:26:52.540Z,113.54
2023-01-22T15:27:52.478Z,112.74
2023-01-22T15:28:52.363Z,112.35
2023-01-22T15:29:52.300Z,111.31
2023-01-22T15:30:52.253Z,112.09
2023-01-22T15:31:52.175Z,113.28
2023-01-22T15:32:52.077Z,111.22
2023-01-22T15:33:52.013Z,111.36
2023-01-22T15:34:51.964Z,111.79
2023-01-22T15:35:51.927Z,111.87
2023-01-22T15:36:51.817Z,110.21
2023-01-22T15:37:51.771Z,112.83
2023-01-22T15:38:51.663Z,111.42
2023-01-22T15:39:51.691Z,109.94
2023-01-22T15:40:51.548Z,111.53
2023-01-22T15:41:51.449Z,109.09
2023-01-22T15:42:51.403Z,114.35
2023-01-22T15:43:51.362Z,112.86
2023-01-22T15:44:51.267Z,111.60
2023-01-22T15:45:51.183Z,109.32
2023-01-22T15:46:51.143Z,112.35
2023-01-22T15:47:51.093Z,107.27
2023-01-22T15:48:51.038Z,111.05
2023-01-22T15:49:50.940Z,112.13
2023-01-22T15:50:50.888Z,109.37
2023-01-22T15:51:50.829Z,108.38
2023-01-22T15:52:50.749Z,109.02
2023-01-22T15:53:50.665Z,108.94
2023-01-22T15:54:50.605Z,111.77
2023-01-22T15:55:50.625Z,109.50
2023-01-22T15:56:50.470Z,107.43
2023-01-22T15:57:50.406Z,104.98
2023-01-22T15:58:50.347Z,109.16
2023-01-22T15:59:50.285Z,106.95
2023-01-22T16:00:50.204Z,109.74
2023-01-22T16:01:50.147Z,108.06
2023-01-22T16:02:50.089Z,106.22